sensor_id;sensor_type;location;lat;lon;timestamp;temperature;humidity
26099;DHT22;13860;52.370;6.764;2023-10-08T00:01:46;19.40;79.30
26099;DHT22;13860;52.370;6.764;2023-10-08T00:04:58;19.70;80.90
26099;DHT22;13860;52.370;6.764;2023-10-08T00:08:04;19.40;79.50
26099;DHT22;13860;52.370;6.764;2023-10-08T00:11:12;19.30;79.40
26099;DHT22;13860;52.370;6.764;2023-10-08T00:14:19;19.40;79.40
26099;DHT22;13860;52.370;6.764;2023-10-08T00:17:29;19.30;79.40
26099;DHT22;13860;52.370;6.764;2023-10-08T00:20:37;19.40;79.50
26099;DHT22;13860;52.370;6.764;2023-10-08T00:23:59;19.40;79.60
26099;DHT22;13860;52.370;6.764;2023-10-08T00:27:08;19.40;80.20
26099;DHT22;13860;52.370;6.764;2023-10-08T00:30:19;19.40;79.60
26099;DHT22;13860;52.370;6.764;2023-10-08T00:33:25;19.40;79.70
26099;DHT22;13860;52.370;6.764;2023-10-08T00:36:37;19.40;79.70
26099;DHT22;13860;52.370;6.764;2023-10-08T00:39:44;19.40;79.80
26099;DHT22;13860;52.370;6.764;2023-10-08T00:42:52;19.30;79.80
26099;DHT22;13860;52.370;6.764;2023-10-08T00:45:59;19.30;79.80
26099;DHT22;13860;52.370;6.764;2023-10-08T00:49:22;19.30;79.90
26099;DHT22;13860;52.370;6.764;2023-10-08T00:52:53;19.40;80.00
26099;DHT22;13860;52.370;6.764;2023-10-08T00:56:06;19.30;80.10
26099;DHT22;13860;52.370;6.764;2023-10-08T00:59:21;19.30;80.20
26099;DHT22;13860;52.370;6.764;2023-10-08T01:05:49;19.30;79.60
26099;DHT22;13860;52.370;6.764;2023-10-08T01:08:59;19.30;80.20
26099;DHT22;13860;52.370;6.764;2023-10-08T01:12:22;19.30;80.60
26099;DHT22;13860;52.370;6.764;2023-10-08T01:15:32;19.30;80.20
26099;DHT22;13860;52.370;6.764;2023-10-08T01:18:38;19.20;80.00
26099;DHT22;13860;52.370;6.764;2023-10-08T01:21:48;19.10;79.80
26099;DHT22;13860;52.370;6.764;2023-10-08T01:24:57;19.00;79.70
26099;DHT22;13860;52.370;6.764;2023-10-08T01:28:06;18.90;79.50
26099;DHT22;13860;52.370;6.764;2023-10-08T01:31:17;18.80;79.40
26099;DHT22;13860;52.370;6.764;2023-10-08T01:34:25;18.70;79.30
26099;DHT22;13860;52.370;6.764;2023-10-08T01:37:37;18.50;79.20
26099;DHT22;13860;52.370;6.764;2023-10-08T01:40:47;18.40;79.10
26099;DHT22;13860;52.370;6.764;2023-10-08T01:43:53;18.20;78.90
26099;DHT22;13860;52.370;6.764;2023-10-08T01:47:02;18.10;78.90
26099;DHT22;13860;52.370;6.764;2023-10-08T01:50:10;18.00;79.00
26099;DHT22;13860;52.370;6.764;2023-10-08T01:53:24;17.90;79.00
26099;DHT22;13860;52.370;6.764;2023-10-08T01:56:36;17.80;79.00
26099;DHT22;13860;52.370;6.764;2023-10-08T01:59:44;17.70;78.90
26099;DHT22;13860;52.370;6.764;2023-10-08T02:02:53;17.60;78.90
26099;DHT22;13860;52.370;6.764;2023-10-08T02:06:00;17.50;79.00
26099;DHT22;13860;52.370;6.764;2023-10-08T02:09:13;17.50;79.00
26099;DHT22;13860;52.370;6.764;2023-10-08T02:12:21;17.30;79.10
26099;DHT22;13860;52.370;6.764;2023-10-08T02:15:29;17.30;79.20
26099;DHT22;13860;52.370;6.764;2023-10-08T02:18:35;17.20;79.10
26099;DHT22;13860;52.370;6.764;2023-10-08T02:21:42;17.10;79.10
26099;DHT22;13860;52.370;6.764;2023-10-08T02:24:48;17.00;79.00
26099;DHT22;13860;52.370;6.764;2023-10-08T02:28:01;16.80;78.90
26099;DHT22;13860;52.370;6.764;2023-10-08T02:31:07;16.70;79.00
26099;DHT22;13860;52.370;6.764;2023-10-08T02:34:14;16.60;79.00
26099;DHT22;13860;52.370;6.764;2023-10-08T02:37:22;16.60;79.10
26099;DHT22;13860;52.370;6.764;2023-10-08T02:40:29;16.50;79.20
26099;DHT22;13860;52.370;6.764;2023-10-08T02:43:37;16.40;79.20
26099;DHT22;13860;52.370;6.764;2023-10-08T02:46:48;16.30;79.20
26099;DHT22;13860;52.370;6.764;2023-10-08T02:49:54;16.30;79.90
26099;DHT22;13860;52.370;6.764;2023-10-08T02:53:03;16.30;79.30
26099;DHT22;13860;52.370;6.764;2023-10-08T02:56:13;16.20;79.30
26099;DHT22;13860;52.370;6.764;2023-10-08T02:59:28;16.20;79.30
26099;DHT22;13860;52.370;6.764;2023-10-08T03:02:42;16.20;79.40
26099;DHT22;13860;52.370;6.764;2023-10-08T03:05:52;16.10;79.40
26099;DHT22;13860;52.370;6.764;2023-10-08T03:08:59;16.10;79.50
26099;DHT22;13860;52.370;6.764;2023-10-08T03:12:08;16.00;79.50
26099;DHT22;13860;52.370;6.764;2023-10-08T03:15:17;16.00;79.50
26099;DHT22;13860;52.370;6.764;2023-10-08T03:18:34;16.00;79.70
26099;DHT22;13860;52.370;6.764;2023-10-08T03:21:46;16.00;79.70
26099;DHT22;13860;52.370;6.764;2023-10-08T03:24:56;15.90;79.70
26099;DHT22;13860;52.370;6.764;2023-10-08T03:28:16;15.90;79.70
26099;DHT22;13860;52.370;6.764;2023-10-08T03:31:26;15.90;79.80
26099;DHT22;13860;52.370;6.764;2023-10-08T03:34:55;15.80;79.80
26099;DHT22;13860;52.370;6.764;2023-10-08T03:38:03;15.80;79.80
26099;DHT22;13860;52.370;6.764;2023-10-08T03:41:23;15.80;79.90
26099;DHT22;13860;52.370;6.764;2023-10-08T03:44:33;15.80;80.00
26099;DHT22;13860;52.370;6.764;2023-10-08T03:47:42;15.80;80.10
26099;DHT22;13860;52.370;6.764;2023-10-08T03:50:51;15.80;80.00
26099;DHT22;13860;52.370;6.764;2023-10-08T03:53:59;15.70;80.00
26099;DHT22;13860;52.370;6.764;2023-10-08T03:57:20;15.70;80.00
26099;DHT22;13860;52.370;6.764;2023-10-08T04:00:28;15.70;80.10
26099;DHT22;13860;52.370;6.764;2023-10-08T04:03:48;15.70;80.10
26099;DHT22;13860;52.370;6.764;2023-10-08T04:07:03;15.60;80.10
26099;DHT22;13860;52.370;6.764;2023-10-08T04:10:23;15.70;80.20
26099;DHT22;13860;52.370;6.764;2023-10-08T04:14:00;15.70;80.20
26099;DHT22;13860;52.370;6.764;2023-10-08T04:17:07;15.60;80.20
26099;DHT22;13860;52.370;6.764;2023-10-08T04:20:16;15.60;80.30
26099;DHT22;13860;52.370;6.764;2023-10-08T04:23:39;15.60;80.40
26099;DHT22;13860;52.370;6.764;2023-10-08T04:26:47;15.60;80.40
26099;DHT22;13860;52.370;6.764;2023-10-08T04:29:55;15.60;80.40
26099;DHT22;13860;52.370;6.764;2023-10-08T04:33:01;15.60;80.40
26099;DHT22;13860;52.370;6.764;2023-10-08T04:36:14;15.60;80.50
26099;DHT22;13860;52.370;6.764;2023-10-08T04:39:23;15.60;80.60
26099;DHT22;13860;52.370;6.764;2023-10-08T04:42:36;15.60;80.50
26099;DHT22;13860;52.370;6.764;2023-10-08T04:45:44;15.60;80.50
26099;DHT22;13860;52.370;6.764;2023-10-08T04:48:51;15.60;80.50
26099;DHT22;13860;52.370;6.764;2023-10-08T04:52:02;15.60;80.50
26099;DHT22;13860;52.370;6.764;2023-10-08T04:55:14;15.60;80.60
26099;DHT22;13860;52.370;6.764;2023-10-08T04:58:22;15.60;80.60
26099;DHT22;13860;52.370;6.764;2023-10-08T05:01:38;15.60;80.60
26099;DHT22;13860;52.370;6.764;2023-10-08T05:04:51;15.60;80.60
26099;DHT22;13860;52.370;6.764;2023-10-08T05:08:29;15.60;80.60
26099;DHT22;13860;52.370;6.764;2023-10-08T05:11:35;15.50;80.60
26099;DHT22;13860;52.370;6.764;2023-10-08T05:15:12;15.50;80.60
26099;DHT22;13860;52.370;6.764;2023-10-08T05:18:36;15.50;80.60
26099;DHT22;13860;52.370;6.764;2023-10-08T05:21:58;15.50;80.70
26099;DHT22;13860;52.370;6.764;2023-10-08T05:25:23;15.50;80.80
26099;DHT22;13860;52.370;6.764;2023-10-08T05:28:40;15.50;80.80
26099;DHT22;13860;52.370;6.764;2023-10-08T05:32:03;15.50;80.80
26099;DHT22;13860;52.370;6.764;2023-10-08T05:35:24;15.50;80.70
26099;DHT22;13860;52.370;6.764;2023-10-08T05:38:51;15.50;80.70
26099;DHT22;13860;52.370;6.764;2023-10-08T05:42:26;15.50;80.80
26099;DHT22;13860;52.370;6.764;2023-10-08T05:45:34;15.40;80.80
26099;DHT22;13860;52.370;6.764;2023-10-08T05:48:41;15.50;80.90
26099;DHT22;13860;52.370;6.764;2023-10-08T05:51:49;15.40;80.90
26099;DHT22;13860;52.370;6.764;2023-10-08T05:55:18;15.40;80.90
26099;DHT22;13860;52.370;6.764;2023-10-08T05:58:30;15.40;80.90
26099;DHT22;13860;52.370;6.764;2023-10-08T06:01:50;15.40;80.90
26099;DHT22;13860;52.370;6.764;2023-10-08T06:05:09;15.40;80.90
26099;DHT22;13860;52.370;6.764;2023-10-08T06:08:25;15.40;81.00
26099;DHT22;13860;52.370;6.764;2023-10-08T06:11:42;15.40;81.00
26099;DHT22;13860;52.370;6.764;2023-10-08T06:15:04;15.40;81.00
26099;DHT22;13860;52.370;6.764;2023-10-08T06:18:14;15.40;81.10
26099;DHT22;13860;52.370;6.764;2023-10-08T06:21:20;15.40;81.10
26099;DHT22;13860;52.370;6.764;2023-10-08T06:24:25;15.40;81.10
26099;DHT22;13860;52.370;6.764;2023-10-08T06:27:33;15.40;81.20
26099;DHT22;13860;52.370;6.764;2023-10-08T06:30:41;15.40;81.10
26099;DHT22;13860;52.370;6.764;2023-10-08T06:33:50;15.40;81.20
26099;DHT22;13860;52.370;6.764;2023-10-08T06:36:57;15.40;81.10
26099;DHT22;13860;52.370;6.764;2023-10-08T06:40:08;15.40;81.10
26099;DHT22;13860;52.370;6.764;2023-10-08T06:43:34;15.40;81.10
26099;DHT22;13860;52.370;6.764;2023-10-08T06:46:44;15.40;81.10
26099;DHT22;13860;52.370;6.764;2023-10-08T06:49:50;15.40;81.20
26099;DHT22;13860;52.370;6.764;2023-10-08T06:52:58;15.40;81.20
26099;DHT22;13860;52.370;6.764;2023-10-08T06:56:08;15.40;81.80
26099;DHT22;13860;52.370;6.764;2023-10-08T06:59:17;15.40;81.10
26099;DHT22;13860;52.370;6.764;2023-10-08T07:02:27;15.40;81.20
26099;DHT22;13860;52.370;6.764;2023-10-08T07:05:35;15.30;81.20
26099;DHT22;13860;52.370;6.764;2023-10-08T07:08:47;15.30;81.10
26099;DHT22;13860;52.370;6.764;2023-10-08T07:11:59;15.30;81.20
26099;DHT22;13860;52.370;6.764;2023-10-08T07:15:09;15.30;81.20
26099;DHT22;13860;52.370;6.764;2023-10-08T07:18:21;15.30;81.20
26099;DHT22;13860;52.370;6.764;2023-10-08T07:21:27;15.30;81.30
26099;DHT22;13860;52.370;6.764;2023-10-08T07:24:49;15.30;81.20
26099;DHT22;13860;52.370;6.764;2023-10-08T07:27:55;15.30;81.30
26099;DHT22;13860;52.370;6.764;2023-10-08T07:31:02;15.30;81.30
26099;DHT22;13860;52.370;6.764;2023-10-08T07:34:10;15.30;81.30
26099;DHT22;13860;52.370;6.764;2023-10-08T07:37:23;15.30;81.30
26099;DHT22;13860;52.370;6.764;2023-10-08T07:40:28;15.30;81.30
26099;DHT22;13860;52.370;6.764;2023-10-08T07:43:41;15.30;81.30
26099;DHT22;13860;52.370;6.764;2023-10-08T07:46:49;15.30;81.30
26099;DHT22;13860;52.370;6.764;2023-10-08T07:50:02;15.30;81.30
26099;DHT22;13860;52.370;6.764;2023-10-08T07:53:14;15.30;81.40
26099;DHT22;13860;52.370;6.764;2023-10-08T07:56:26;15.30;81.30
26099;DHT22;13860;52.370;6.764;2023-10-08T07:59:32;15.30;81.30
26099;DHT22;13860;52.370;6.764;2023-10-08T08:02:42;15.30;81.40
26099;DHT22;13860;52.370;6.764;2023-10-08T08:05:51;15.30;81.30
26099;DHT22;13860;52.370;6.764;2023-10-08T08:09:00;15.30;81.40
26099;DHT22;13860;52.370;6.764;2023-10-08T08:12:12;15.30;81.40
26099;DHT22;13860;52.370;6.764;2023-10-08T08:15:19;15.40;81.40
26099;DHT22;13860;52.370;6.764;2023-10-08T08:18:25;15.30;81.30
26099;DHT22;13860;52.370;6.764;2023-10-08T08:21:40;15.40;81.40
26099;DHT22;13860;52.370;6.764;2023-10-08T08:24:47;15.40;81.40
26099;DHT22;13860;52.370;6.764;2023-10-08T08:28:01;15.40;81.50
26099;DHT22;13860;52.370;6.764;2023-10-08T08:31:08;15.40;81.40
26099;DHT22;13860;52.370;6.764;2023-10-08T08:34:18;15.50;81.50
26099;DHT22;13860;52.370;6.764;2023-10-08T08:37:28;15.50;81.40
26099;DHT22;13860;52.370;6.764;2023-10-08T08:40:39;15.50;81.50
26099;DHT22;13860;52.370;6.764;2023-10-08T08:43:48;15.60;81.40
26099;DHT22;13860;52.370;6.764;2023-10-08T08:47:01;15.60;81.30
26099;DHT22;13860;52.370;6.764;2023-10-08T08:50:09;15.70;81.30
26099;DHT22;13860;52.370;6.764;2023-10-08T08:53:20;15.70;81.20
26099;DHT22;13860;52.370;6.764;2023-10-08T08:56:26;15.70;81.10
26099;DHT22;13860;52.370;6.764;2023-10-08T08:59:36;15.80;81.10
26099;DHT22;13860;52.370;6.764;2023-10-08T09:02:42;15.80;81.10
26099;DHT22;13860;52.370;6.764;2023-10-08T09:05:49;15.90;81.10
26099;DHT22;13860;52.370;6.764;2023-10-08T09:08:59;15.90;81.00
26099;DHT22;13860;52.370;6.764;2023-10-08T09:12:18;16.00;80.90
26099;DHT22;13860;52.370;6.764;2023-10-08T09:15:24;16.00;80.70
26099;DHT22;13860;52.370;6.764;2023-10-08T09:18:31;16.00;80.60
26099;DHT22;13860;52.370;6.764;2023-10-08T09:21:37;16.10;80.60
26099;DHT22;13860;52.370;6.764;2023-10-08T09:24:48;16.20;80.60
26099;DHT22;13860;52.370;6.764;2023-10-08T09:27:55;16.20;80.40
26099;DHT22;13860;52.370;6.764;2023-10-08T09:31:03;16.20;80.30
26099;DHT22;13860;52.370;6.764;2023-10-08T09:34:08;16.20;80.20
26099;DHT22;13860;52.370;6.764;2023-10-08T09:37:17;16.30;80.30
26099;DHT22;13860;52.370;6.764;2023-10-08T09:40:27;16.30;80.10
26099;DHT22;13860;52.370;6.764;2023-10-08T09:43:34;16.40;80.10
26099;DHT22;13860;52.370;6.764;2023-10-08T09:46:42;16.40;80.00
26099;DHT22;13860;52.370;6.764;2023-10-08T09:49:56;16.40;80.00
26099;DHT22;13860;52.370;6.764;2023-10-08T09:53:08;16.50;80.00
26099;DHT22;13860;52.370;6.764;2023-10-08T09:56:25;16.50;79.90
26099;DHT22;13860;52.370;6.764;2023-10-08T09:59:35;16.60;80.00
26099;DHT22;13860;52.370;6.764;2023-10-08T10:02:43;16.60;79.80
26099;DHT22;13860;52.370;6.764;2023-10-08T10:05:49;16.70;79.80
26099;DHT22;13860;52.370;6.764;2023-10-08T10:09:02;16.70;79.60
26099;DHT22;13860;52.370;6.764;2023-10-08T10:12:18;16.70;79.40
26099;DHT22;13860;52.370;6.764;2023-10-08T10:15:31;16.70;79.20
26099;DHT22;13860;52.370;6.764;2023-10-08T10:18:37;16.70;79.10
26099;DHT22;13860;52.370;6.764;2023-10-08T10:21:45;16.80;79.20
26099;DHT22;13860;52.370;6.764;2023-10-08T10:24:53;16.90;79.10
26099;DHT22;13860;52.370;6.764;2023-10-08T10:28:24;16.90;79.00
26099;DHT22;13860;52.370;6.764;2023-10-08T10:31:32;16.90;78.70
26099;DHT22;13860;52.370;6.764;2023-10-08T10:34:42;17.00;78.70
26099;DHT22;13860;52.370;6.764;2023-10-08T10:37:53;17.00;78.60
26099;DHT22;13860;52.370;6.764;2023-10-08T10:41:03;17.00;78.50
26099;DHT22;13860;52.370;6.764;2023-10-08T10:47:24;17.20;77.90
26099;DHT22;13860;52.370;6.764;2023-10-08T10:50:46;17.20;78.30
26099;DHT22;13860;52.370;6.764;2023-10-08T10:54:13;17.20;78.30
26099;DHT22;13860;52.370;6.764;2023-10-08T10:57:24;17.30;78.20
26099;DHT22;13860;52.370;6.764;2023-10-08T11:00:44;17.40;78.00
26099;DHT22;13860;52.370;6.764;2023-10-08T11:03:59;17.40;77.90
26099;DHT22;13860;52.370;6.764;2023-10-08T11:07:10;17.50;77.90
26099;DHT22;13860;52.370;6.764;2023-10-08T11:10:15;17.50;77.70
26099;DHT22;13860;52.370;6.764;2023-10-08T11:13:28;17.60;77.60
26099;DHT22;13860;52.370;6.764;2023-10-08T11:16:45;17.60;77.50
26099;DHT22;13860;52.370;6.764;2023-10-08T11:19:52;17.70;77.40
26099;DHT22;13860;52.370;6.764;2023-10-08T11:22:58;17.70;77.40
26099;DHT22;13860;52.370;6.764;2023-10-08T11:26:23;17.80;77.30
26099;DHT22;13860;52.370;6.764;2023-10-08T11:29:37;17.80;77.10
26099;DHT22;13860;52.370;6.764;2023-10-08T11:32:47;17.90;77.00
26099;DHT22;13860;52.370;6.764;2023-10-08T11:35:57;18.00;76.80
26099;DHT22;13860;52.370;6.764;2023-10-08T11:39:12;18.00;76.70
26099;DHT22;13860;52.370;6.764;2023-10-08T11:42:24;18.10;76.70
26099;DHT22;13860;52.370;6.764;2023-10-08T11:45:44;18.20;76.60
26099;DHT22;13860;52.370;6.764;2023-10-08T11:48:54;18.30;76.50
26099;DHT22;13860;52.370;6.764;2023-10-08T11:52:08;18.30;76.30
26099;DHT22;13860;52.370;6.764;2023-10-08T11:55:13;18.40;76.20
26099;DHT22;13860;52.370;6.764;2023-10-08T11:58:23;18.40;76.10
26099;DHT22;13860;52.370;6.764;2023-10-08T12:01:40;18.50;75.90
26099;DHT22;13860;52.370;6.764;2023-10-08T12:04:50;18.60;75.80
26099;DHT22;13860;52.370;6.764;2023-10-08T12:08:00;18.60;75.60
26099;DHT22;13860;52.370;6.764;2023-10-08T12:11:08;18.60;75.50
26099;DHT22;13860;52.370;6.764;2023-10-08T12:14:14;18.70;75.50
26099;DHT22;13860;52.370;6.764;2023-10-08T12:17:23;18.70;75.30
26099;DHT22;13860;52.370;6.764;2023-10-08T12:20:43;18.70;75.20
26099;DHT22;13860;52.370;6.764;2023-10-08T12:23:52;18.80;75.10
26099;DHT22;13860;52.370;6.764;2023-10-08T12:26:57;18.80;75.10
26099;DHT22;13860;52.370;6.764;2023-10-08T12:30:08;18.90;75.00
26099;DHT22;13860;52.370;6.764;2023-10-08T12:33:14;18.90;74.90
26099;DHT22;13860;52.370;6.764;2023-10-08T12:36:26;18.90;74.70
26099;DHT22;13860;52.370;6.764;2023-10-08T12:39:35;19.00;74.60
26099;DHT22;13860;52.370;6.764;2023-10-08T12:42:57;19.00;74.50
26099;DHT22;13860;52.370;6.764;2023-10-08T12:46:02;19.10;74.50
26099;DHT22;13860;52.370;6.764;2023-10-08T12:49:15;19.10;74.40
26099;DHT22;13860;52.370;6.764;2023-10-08T12:52:26;19.10;74.30
26099;DHT22;13860;52.370;6.764;2023-10-08T12:55:34;19.10;74.00
26099;DHT22;13860;52.370;6.764;2023-10-08T12:58:43;19.10;74.00
26099;DHT22;13860;52.370;6.764;2023-10-08T13:01:53;19.10;73.90
26099;DHT22;13860;52.370;6.764;2023-10-08T13:04:59;19.10;73.90
26099;DHT22;13860;52.370;6.764;2023-10-08T13:08:09;19.10;73.70
26099;DHT22;13860;52.370;6.764;2023-10-08T13:11:16;19.10;73.60
26099;DHT22;13860;52.370;6.764;2023-10-08T13:14:26;19.10;73.60
26099;DHT22;13860;52.370;6.764;2023-10-08T13:17:32;19.10;73.60
26099;DHT22;13860;52.370;6.764;2023-10-08T13:20:39;19.00;73.50
26099;DHT22;13860;52.370;6.764;2023-10-08T13:23:50;19.00;73.60
26099;DHT22;13860;52.370;6.764;2023-10-08T13:26:57;19.00;73.50
26099;DHT22;13860;52.370;6.764;2023-10-08T13:30:03;18.90;73.50
26099;DHT22;13860;52.370;6.764;2023-10-08T13:33:13;18.90;73.60
26099;DHT22;13860;52.370;6.764;2023-10-08T13:36:20;18.90;73.60
26099;DHT22;13860;52.370;6.764;2023-10-08T13:39:31;18.90;73.60
26099;DHT22;13860;52.370;6.764;2023-10-08T13:42:37;18.90;73.50
26099;DHT22;13860;52.370;6.764;2023-10-08T13:45:45;18.80;73.50
26099;DHT22;13860;52.370;6.764;2023-10-08T13:48:51;18.80;73.40
26099;DHT22;13860;52.370;6.764;2023-10-08T13:51:58;18.80;73.40
26099;DHT22;13860;52.370;6.764;2023-10-08T13:55:08;18.80;73.40
26099;DHT22;13860;52.370;6.764;2023-10-08T13:58:17;18.80;73.30
26099;DHT22;13860;52.370;6.764;2023-10-08T14:01:24;18.80;73.60
26099;DHT22;13860;52.370;6.764;2023-10-08T14:04:32;18.70;73.60
26099;DHT22;13860;52.370;6.764;2023-10-08T14:07:43;18.70;73.50
26099;DHT22;13860;52.370;6.764;2023-10-08T14:10:56;18.70;73.50
26099;DHT22;13860;52.370;6.764;2023-10-08T14:14:05;18.70;73.40
26099;DHT22;13860;52.370;6.764;2023-10-08T14:17:16;18.70;73.40
26099;DHT22;13860;52.370;6.764;2023-10-08T14:20:42;18.60;73.40
26099;DHT22;13860;52.370;6.764;2023-10-08T14:23:51;18.70;73.50
26099;DHT22;13860;52.370;6.764;2023-10-08T14:27:02;18.70;73.50
26099;DHT22;13860;52.370;6.764;2023-10-08T14:30:14;18.60;73.30
26099;DHT22;13860;52.370;6.764;2023-10-08T14:33:23;18.60;73.30
26099;DHT22;13860;52.370;6.764;2023-10-08T14:36:36;18.60;73.30
26099;DHT22;13860;52.370;6.764;2023-10-08T14:39:54;18.70;73.30
26099;DHT22;13860;52.370;6.764;2023-10-08T14:43:16;18.60;73.30
26099;DHT22;13860;52.370;6.764;2023-10-08T14:46:25;18.60;73.30
26099;DHT22;13860;52.370;6.764;2023-10-08T14:49:35;18.60;73.30
26099;DHT22;13860;52.370;6.764;2023-10-08T14:52:41;18.60;73.40
26099;DHT22;13860;52.370;6.764;2023-10-08T14:55:48;18.60;73.40
26099;DHT22;13860;52.370;6.764;2023-10-08T14:58:57;18.60;73.40
26099;DHT22;13860;52.370;6.764;2023-10-08T15:02:04;18.50;73.30
26099;DHT22;13860;52.370;6.764;2023-10-08T15:05:09;18.50;73.30
26099;DHT22;13860;52.370;6.764;2023-10-08T15:08:18;18.50;73.40
26099;DHT22;13860;52.370;6.764;2023-10-08T15:11:24;18.50;73.40
26099;DHT22;13860;52.370;6.764;2023-10-08T15:14:37;18.50;73.50
26099;DHT22;13860;52.370;6.764;2023-10-08T15:17:45;18.40;73.50
26099;DHT22;13860;52.370;6.764;2023-10-08T15:20:54;18.40;73.50
26099;DHT22;13860;52.370;6.764;2023-10-08T15:23:59;18.40;73.60
26099;DHT22;13860;52.370;6.764;2023-10-08T15:27:14;18.40;73.60
26099;DHT22;13860;52.370;6.764;2023-10-08T15:30:22;18.40;73.50
26099;DHT22;13860;52.370;6.764;2023-10-08T15:33:30;18.40;73.40
26099;DHT22;13860;52.370;6.764;2023-10-08T15:36:36;18.40;73.50
26099;DHT22;13860;52.370;6.764;2023-10-08T15:39:43;18.30;73.40
26099;DHT22;13860;52.370;6.764;2023-10-08T15:42:51;18.30;73.40
26099;DHT22;13860;52.370;6.764;2023-10-08T15:46:01;18.30;73.50
26099;DHT22;13860;52.370;6.764;2023-10-08T15:49:08;18.30;73.50
26099;DHT22;13860;52.370;6.764;2023-10-08T15:52:17;18.30;73.60
26099;DHT22;13860;52.370;6.764;2023-10-08T15:55:22;18.20;73.60
26099;DHT22;13860;52.370;6.764;2023-10-08T15:58:30;18.30;73.70
26099;DHT22;13860;52.370;6.764;2023-10-08T16:01:38;18.20;73.60
26099;DHT22;13860;52.370;6.764;2023-10-08T16:04:47;18.20;73.70
26099;DHT22;13860;52.370;6.764;2023-10-08T16:07:53;18.10;73.70
26099;DHT22;13860;52.370;6.764;2023-10-08T16:11:03;18.10;73.80
26099;DHT22;13860;52.370;6.764;2023-10-08T16:14:08;18.10;73.80
26099;DHT22;13860;52.370;6.764;2023-10-08T16:17:18;18.10;73.90
26099;DHT22;13860;52.370;6.764;2023-10-08T16:20:24;18.00;73.80
26099;DHT22;13860;52.370;6.764;2023-10-08T16:23:32;18.00;73.80
26099;DHT22;13860;52.370;6.764;2023-10-08T16:26:38;18.00;73.90
26099;DHT22;13860;52.370;6.764;2023-10-08T16:29:46;17.90;73.90
26099;DHT22;13860;52.370;6.764;2023-10-08T16:32:55;17.90;74.00
26099;DHT22;13860;52.370;6.764;2023-10-08T16:36:03;17.90;73.90
26099;DHT22;13860;52.370;6.764;2023-10-08T16:39:12;17.80;74.70
26099;DHT22;13860;52.370;6.764;2023-10-08T16:42:22;17.80;74.00
26099;DHT22;13860;52.370;6.764;2023-10-08T16:45:28;17.80;74.10
26099;DHT22;13860;52.370;6.764;2023-10-08T16:48:39;17.80;74.10
26099;DHT22;13860;52.370;6.764;2023-10-08T16:51:46;17.70;74.10
26099;DHT22;13860;52.370;6.764;2023-10-08T16:54:54;17.70;74.10
26099;DHT22;13860;52.370;6.764;2023-10-08T16:57:59;17.60;74.10
26099;DHT22;13860;52.370;6.764;2023-10-08T17:01:07;17.60;74.20
26099;DHT22;13860;52.370;6.764;2023-10-08T17:04:15;17.50;74.30
26099;DHT22;13860;52.370;6.764;2023-10-08T17:07:22;17.50;74.20
26099;DHT22;13860;52.370;6.764;2023-10-08T17:10:28;17.50;74.90
26099;DHT22;13860;52.370;6.764;2023-10-08T17:13:36;17.50;74.40
26099;DHT22;13860;52.370;6.764;2023-10-08T17:16:44;17.40;74.30
26099;DHT22;13860;52.370;6.764;2023-10-08T17:19:54;17.40;74.30
26099;DHT22;13860;52.370;6.764;2023-10-08T17:23:00;17.40;74.40
26099;DHT22;13860;52.370;6.764;2023-10-08T17:26:09;17.30;74.50
26099;DHT22;13860;52.370;6.764;2023-10-08T17:29:16;17.30;74.40
26099;DHT22;13860;52.370;6.764;2023-10-08T17:32:23;17.30;74.40
26099;DHT22;13860;52.370;6.764;2023-10-08T17:35:31;17.20;74.40
26099;DHT22;13860;52.370;6.764;2023-10-08T17:38:40;17.20;74.50
26099;DHT22;13860;52.370;6.764;2023-10-08T17:41:46;17.20;74.40
26099;DHT22;13860;52.370;6.764;2023-10-08T17:44:54;17.20;74.40
26099;DHT22;13860;52.370;6.764;2023-10-08T17:48:02;17.10;74.40
26099;DHT22;13860;52.370;6.764;2023-10-08T17:51:14;17.10;74.50
26099;DHT22;13860;52.370;6.764;2023-10-08T17:54:19;17.00;74.50
26099;DHT22;13860;52.370;6.764;2023-10-08T17:57:28;17.00;74.50
26099;DHT22;13860;52.370;6.764;2023-10-08T18:00:35;17.00;74.50
26099;DHT22;13860;52.370;6.764;2023-10-08T18:03:45;16.90;74.50
26099;DHT22;13860;52.370;6.764;2023-10-08T18:06:54;16.90;74.50
26099;DHT22;13860;52.370;6.764;2023-10-08T18:10:02;16.90;74.50
26099;DHT22;13860;52.370;6.764;2023-10-08T18:13:08;16.80;74.50
26099;DHT22;13860;52.370;6.764;2023-10-08T18:16:16;16.80;74.60
26099;DHT22;13860;52.370;6.764;2023-10-08T18:19:22;16.80;74.60
26099;DHT22;13860;52.370;6.764;2023-10-08T18:22:33;16.80;74.60
26099;DHT22;13860;52.370;6.764;2023-10-08T18:25:38;16.70;74.50
26099;DHT22;13860;52.370;6.764;2023-10-08T18:28:45;16.70;74.60
26099;DHT22;13860;52.370;6.764;2023-10-08T18:31:52;16.70;74.60
26099;DHT22;13860;52.370;6.764;2023-10-08T18:34:59;16.60;74.50
26099;DHT22;13860;52.370;6.764;2023-10-08T18:38:07;16.60;74.60
26099;DHT22;13860;52.370;6.764;2023-10-08T18:41:15;16.60;74.60
26099;DHT22;13860;52.370;6.764;2023-10-08T18:44:20;16.60;74.60
26099;DHT22;13860;52.370;6.764;2023-10-08T18:47:28;16.50;74.50
26099;DHT22;13860;52.370;6.764;2023-10-08T18:50:35;16.50;74.60
26099;DHT22;13860;52.370;6.764;2023-10-08T18:53:46;16.50;74.50
26099;DHT22;13860;52.370;6.764;2023-10-08T18:56:52;16.50;74.60
26099;DHT22;13860;52.370;6.764;2023-10-08T19:00:01;16.50;74.50
26099;DHT22;13860;52.370;6.764;2023-10-08T19:03:12;16.50;74.50
26099;DHT22;13860;52.370;6.764;2023-10-08T19:06:21;16.40;74.40
26099;DHT22;13860;52.370;6.764;2023-10-08T19:09:30;16.40;74.40
26099;DHT22;13860;52.370;6.764;2023-10-08T19:12:37;16.40;74.40
26099;DHT22;13860;52.370;6.764;2023-10-08T19:15:43;16.40;74.50
26099;DHT22;13860;52.370;6.764;2023-10-08T19:18:53;16.40;74.50
26099;DHT22;13860;52.370;6.764;2023-10-08T19:21:59;16.40;74.60
26099;DHT22;13860;52.370;6.764;2023-10-08T19:25:10;16.30;74.50
26099;DHT22;13860;52.370;6.764;2023-10-08T19:28:19;16.40;74.50
26099;DHT22;13860;52.370;6.764;2023-10-08T19:31:28;16.40;74.50
26099;DHT22;13860;52.370;6.764;2023-10-08T19:34:33;16.40;75.10
26099;DHT22;13860;52.370;6.764;2023-10-08T19:37:41;16.30;74.40
26099;DHT22;13860;52.370;6.764;2023-10-08T19:40:49;16.30;74.40
26099;DHT22;13860;52.370;6.764;2023-10-08T19:43:56;16.30;74.50
26099;DHT22;13860;52.370;6.764;2023-10-08T19:47:01;16.30;74.50
26099;DHT22;13860;52.370;6.764;2023-10-08T19:50:09;16.30;74.50
26099;DHT22;13860;52.370;6.764;2023-10-08T19:53:16;16.30;74.60
26099;DHT22;13860;52.370;6.764;2023-10-08T19:56:27;16.30;74.60
26099;DHT22;13860;52.370;6.764;2023-10-08T19:59:32;16.30;74.60
26099;DHT22;13860;52.370;6.764;2023-10-08T20:02:43;16.30;74.60
26099;DHT22;13860;52.370;6.764;2023-10-08T20:05:49;16.30;74.70
26099;DHT22;13860;52.370;6.764;2023-10-08T20:08:57;16.30;74.70